createdAt,value
2022-09-15T00:02:19.208Z,7.10
2022-09-15T00:05:04.282Z,6.82
2022-09-15T00:07:49.765Z,7.22
2022-09-15T00:10:17.683Z,6.63
2022-09-15T00:12:51.749Z,8.13
2022-09-15T00:15:22.547Z,7.07
2022-09-15T00:17:52.627Z,7.60
2022-09-15T00:20:22.184Z,7.65
2022-09-15T00:22:49.617Z,7.35
2022-09-15T00:25:17.281Z,7.50
2022-09-15T00:27:44.235Z,7.07
2022-09-15T00:30:44.357Z,6.47
2022-09-15T00:34:05.097Z,6.63
2022-09-15T00:37:08.365Z,6.60
2022-09-15T00:40:29.902Z,6.60
2022-09-15T00:44:56.439Z,6.80
2022-09-15T00:47:45.052Z,6.60
2022-09-15T00:50:41.227Z,7.00
2022-09-15T00:53:11.689Z,6.82
2022-09-15T00:55:48.434Z,7.03
2022-09-15T00:58:37.084Z,6.55
2022-09-15T01:01:08.165Z,6.82
2022-09-15T01:03:36.740Z,6.72
2022-09-15T01:06:18.140Z,6.90
2022-09-15T01:09:19.310Z,7.03
2022-09-15T01:11:46.641Z,6.90
2022-09-15T01:14:13.885Z,6.82
2022-09-15T01:17:06.953Z,6.90
2022-09-15T01:20:23.525Z,7.25
2022-09-15T01:23:31.413Z,7.80
2022-09-15T01:26:25.106Z,7.13
2022-09-15T01:33:53.816Z,7.50
2022-09-15T01:36:48.944Z,9.13
2022-09-15T01:40:52.593Z,8.82
2022-09-15T01:43:27.165Z,9.48
2022-09-15T01:45:54.293Z,9.10
2022-09-15T01:49:22.449Z,9.90
2022-09-15T01:53:19.802Z,9.05
2022-09-15T02:00:30.465Z,7.97
2022-09-15T02:11:47.760Z,7.15
2022-09-15T02:19:58.080Z,7.47
2022-09-15T02:22:41.225Z,7.63
2022-09-15T02:25:18.732Z,7.60
2022-09-15T02:27:55.568Z,8.05
2022-09-15T02:30:23.847Z,7.28
2022-09-15T02:33:03.373Z,7.28
2022-09-15T02:35:39.398Z,7.75
2022-09-15T02:38:09.498Z,7.60
2022-09-15T02:40:51.294Z,7.35
2022-09-15T02:43:19.636Z,9.47
2022-09-15T02:45:46.777Z,7.57
2022-09-15T02:48:13.994Z,7.65
2022-09-15T02:50:41.670Z,7.00
2022-09-15T02:53:09.105Z,7.55
2022-09-15T02:56:01.630Z,7.63
2022-09-15T03:01:08.268Z,7.03
2022-09-15T03:03:38.827Z,7.53
2022-09-15T03:06:37.213Z,7.47
2022-09-15T03:09:07.976Z,7.82
2022-09-15T03:11:36.679Z,7.68
2022-09-15T03:14:07.217Z,8.05
2022-09-15T03:16:36.082Z,7.60
2022-09-15T03:19:12.514Z,8.05
2022-09-15T03:21:39.927Z,8.20
2022-09-15T03:24:07.593Z,8.40
2022-09-15T03:26:34.593Z,7.72
2022-09-15T03:29:01.562Z,8.43
2022-09-15T03:31:28.835Z,7.85
2022-09-15T03:33:56.175Z,8.02
2022-09-15T03:36:26.198Z,8.60
2022-09-15T03:38:53.342Z,9.40
2022-09-15T03:41:20.515Z,7.97
2022-09-15T03:43:47.531Z,7.85
2022-09-15T03:46:14.871Z,8.65
2022-09-15T03:48:42.201Z,7.18
2022-09-15T03:51:11.180Z,7.28
2022-09-15T03:53:41.490Z,7.00
2022-09-15T03:56:15.567Z,6.88
2022-09-15T03:58:42.760Z,6.80
2022-09-15T04:01:12.899Z,7.50
2022-09-15T04:03:46.310Z,7.55
2022-09-15T04:06:15.217Z,6.72
2022-09-15T04:08:42.993Z,7.88
2022-09-15T04:11:28.271Z,7.72
2022-09-15T04:13:56.051Z,7.43
2022-09-15T04:16:25.230Z,8.45
2022-09-15T04:18:52.990Z,8.10
2022-09-15T04:21:23.610Z,8.73
2022-09-15T04:23:52.035Z,9.32
2022-09-15T04:26:30.157Z,8.27
2022-09-15T04:29:04.333Z,8.30
2022-09-15T04:31:36.478Z,8.23
2022-09-15T04:34:06.981Z,9.30
2022-09-15T04:36:40.781Z,9.20
2022-09-15T04:39:07.892Z,9.45
2022-09-15T04:41:41.223Z,9.07
2022-09-15T04:44:16.096Z,9.73
2022-09-15T04:46:43.791Z,10.02
2022-09-15T04:49:11.126Z,9.75
2022-09-15T04:51:38.941Z,10.57
2022-09-15T04:54:07.090Z,11.18
2022-09-15T04:56:34.372Z,11.05
2022-09-15T04:59:04.444Z,11.07
2022-09-15T05:01:35.498Z,11.95
2022-09-15T05:04:04.751Z,11.60
2022-09-15T05:06:35.201Z,11.85
2022-09-15T05:23:59.221Z,11.75
2022-09-15T05:26:41.890Z,13.73
2022-09-15T05:38:35.263Z,12.37
2022-09-15T05:41:24.011Z,12.85
2022-09-15T05:44:13.725Z,12.57
2022-09-15T05:47:06.696Z,12.05
2022-09-15T05:50:00.318Z,12.48
2022-09-15T05:54:09.326Z,11.35
2022-09-15T06:03:00.637Z,10.27
2022-09-15T06:05:28.656Z,8.88
2022-09-15T06:12:24.389Z,9.45
2022-09-15T06:14:53.161Z,9.30
2022-09-15T06:17:23.359Z,8.07
2022-09-15T06:19:51.029Z,8.00
2022-09-15T06:22:18.240Z,7.15
2022-09-15T06:24:46.635Z,6.60
2022-09-15T06:27:14.047Z,6.95
2022-09-15T06:29:46.287Z,6.15
2022-09-15T06:32:13.874Z,5.85
2022-09-15T06:35:13.397Z,4.65
2022-09-15T06:37:48.828Z,5.30
2022-09-15T06:40:16.313Z,5.25
2022-09-15T06:42:44.903Z,4.43
2022-09-15T06:45:12.569Z,5.07
2022-09-15T06:48:02.058Z,4.45
2022-09-15T06:50:36.696Z,5.43
2022-09-15T06:53:06.582Z,4.78
2022-09-15T06:55:33.938Z,4.53
2022-09-15T06:58:16.520Z,4.85
2022-09-15T07:08:45.702Z,4.63
2022-09-15T07:12:22.355Z,4.07
2022-09-15T07:15:08.588Z,4.13
2022-09-15T07:17:37.705Z,4.65
2022-09-15T07:20:06.138Z,4.30
2022-09-15T07:22:33.397Z,4.28
2022-09-15T07:25:00.907Z,4.82
2022-09-15T07:27:34.196Z,4.43
2022-09-15T07:30:02.341Z,4.32
2022-09-15T07:32:29.783Z,4.30
2022-09-15T07:34:58.553Z,5.10
2022-09-15T07:37:25.869Z,4.45
2022-09-15T07:39:56.123Z,4.90
2022-09-15T07:42:23.266Z,4.00
2022-09-15T07:44:50.639Z,4.30
2022-09-15T07:47:18.304Z,4.85
2022-09-15T07:49:45.779Z,4.32
2022-09-15T07:52:13.221Z,4.00
2022-09-15T07:54:48.066Z,3.58
2022-09-15T07:57:15.711Z,3.28
2022-09-15T07:59:43.201Z,3.65
2022-09-15T08:02:17.957Z,3.92
2022-09-15T08:04:45.329Z,3.40
2022-09-15T08:07:13.916Z,3.03
2022-09-15T08:09:41.989Z,3.80
2022-09-15T08:12:19.279Z,3.42
2022-09-15T08:14:46.544Z,4.03
2022-09-15T08:17:16.595Z,3.40
2022-09-15T08:19:46.111Z,3.78
2022-09-15T08:22:14.037Z,3.55
2022-09-15T08:24:41.436Z,3.85
2022-09-15T08:27:09.384Z,4.05
2022-09-15T08:29:36.609Z,4.00
2022-09-15T08:32:09.888Z,5.03
2022-09-15T08:34:37.044Z,4.80
2022-09-15T08:37:04.457Z,4.70
2022-09-15T08:39:31.967Z,6.07
2022-09-15T08:42:02.116Z,5.20
2022-09-15T08:44:40.699Z,5.65
2022-09-15T08:47:28.327Z,5.75
2022-09-15T08:50:11.722Z,5.40
2022-09-15T08:53:09.774Z,5.05
2022-09-15T08:55:48.911Z,4.93
2022-09-15T08:58:25.690Z,4.93
2022-09-15T09:01:40.987Z,5.18
2022-09-15T09:04:46.706Z,4.60
2022-09-15T09:07:46.705Z,4.32
2022-09-15T09:10:33.224Z,3.65
2022-09-15T09:13:38.042Z,4.10
2022-09-15T09:16:44.541Z,3.67
2022-09-15T09:19:30.069Z,3.22
2022-09-15T09:22:11.506Z,3.15
2022-09-15T09:24:51.847Z,3.83
2022-09-15T09:27:36.622Z,3.00
2022-09-15T09:30:36.074Z,2.88
2022-09-15T09:34:26.143Z,3.20
2022-09-15T09:37:14.050Z,2.45
2022-09-15T09:40:07.210Z,2.25
2022-09-15T09:42:44.486Z,2.33
2022-09-15T09:45:21.486Z,2.65
2022-09-15T09:47:49.755Z,2.38
2022-09-15T09:50:45.222Z,2.58
2022-09-15T09:53:33.053Z,1.95
2022-09-15T09:56:26.916Z,2.20
2022-09-15T09:58:54.945Z,2.38
2022-09-15T10:01:33.835Z,2.10
2022-09-15T10:09:24.197Z,2.47
2022-09-15T10:12:17.194Z,1.90
2022-09-15T10:15:35.955Z,1.80
2022-09-15T10:18:52.180Z,1.50
2022-09-15T10:21:26.539Z,1.80
2022-09-15T10:24:32.294Z,2.13
2022-09-15T10:27:25.821Z,1.83
2022-09-15T10:29:54.321Z,1.58
2022-09-15T10:32:35.178Z,1.65
2022-09-15T10:35:14.096Z,1.73
2022-09-15T10:38:03.495Z,1.63
2022-09-15T10:40:56.644Z,1.73
2022-09-15T10:43:39.747Z,1.60
2022-09-15T10:46:24.158Z,2.40
2022-09-15T10:49:23.952Z,2.40
2022-09-15T10:52:13.798Z,2.28
2022-09-15T10:55:48.967Z,2.40
2022-09-15T10:58:54.526Z,2.92
2022-09-15T11:01:31.130Z,2.42
2022-09-15T11:04:41.683Z,2.28
2022-09-15T11:08:13.331Z,2.30
2022-09-15T11:11:08.505Z,2.15
2022-09-15T11:20:08.172Z,2.50
2022-09-15T11:31:03.484Z,1.88
2022-09-15T11:33:58.584Z,2.28
2022-09-15T11:36:57.334Z,1.98
2022-09-15T11:39:39.474Z,1.83
2022-09-15T11:42:23.391Z,2.05
2022-09-15T11:44:51.182Z,1.75
2022-09-15T11:47:45.179Z,1.70
2022-09-15T11:55:42.972Z,2.20
2022-09-15T11:58:41.132Z,1.50
2022-09-15T12:01:20.798Z,1.58
2022-09-15T12:04:12.786Z,1.80
2022-09-15T12:07:18.992Z,1.70
2022-09-15T12:09:48.224Z,1.50
2022-09-15T12:12:22.090Z,1.80
2022-09-15T12:19:00.096Z,1.90
2022-09-15T12:22:01.967Z,1.85
2022-09-15T12:25:16.889Z,2.00
2022-09-15T12:27:44.334Z,2.08
2022-09-15T12:30:47.912Z,2.10
2022-09-15T12:33:43.049Z,2.35
2022-09-15T12:36:49.186Z,2.00
2022-09-15T12:42:27.769Z,2.03
2022-09-15T12:45:06.707Z,2.08
2022-09-15T12:47:41.063Z,2.58
2022-09-15T12:50:20.647Z,2.10
2022-09-15T12:53:02.603Z,2.10
2022-09-15T12:55:45.497Z,2.90
2022-09-15T12:58:37.104Z,2.20
2022-09-15T13:01:23.376Z,2.20
2022-09-15T13:03:50.997Z,2.22
2022-09-15T13:06:26.584Z,2.35
2022-09-15T13:09:05.303Z,2.33
2022-09-15T13:11:38.342Z,2.40
2022-09-15T13:14:14.483Z,2.28
2022-09-15T13:16:48.032Z,2.53
2022-09-15T13:43:02.353Z,2.60
2022-09-15T13:46:58.867Z,2.40
2022-09-15T14:07:52.151Z,1.67
2022-09-15T14:11:49.743Z,2.15
2022-09-15T14:31:18.652Z,2.50
2022-09-15T14:33:55.124Z,2.60
2022-09-15T14:39:39.962Z,2.10
2022-09-15T14:42:32.804Z,2.10
2022-09-15T14:48:07.441Z,1.63
2022-09-15T14:53:17.205Z,1.65
2022-09-15T14:56:23.877Z,1.90
2022-09-15T14:58:57.285Z,1.73
2022-09-15T15:01:40.456Z,1.70
2022-09-15T15:04:37.870Z,1.40
2022-09-15T15:07:25.908Z,2.55
2022-09-15T15:10:22.893Z,1.90
2022-09-15T15:13:07.356Z,1.58
2022-09-15T15:15:40.464Z,1.55
2022-09-15T15:18:41.780Z,1.50
2022-09-15T15:21:45.263Z,1.40
2022-09-15T15:24:13.554Z,1.58
2022-09-15T15:26:46.083Z,1.35
2022-09-15T15:29:48.504Z,1.30
2022-09-15T15:32:22.435Z,1.60
2022-09-15T15:35:06.719Z,1.20
2022-09-15T15:38:51.403Z,1.52
2022-09-15T15:43:28.370Z,1.30
2022-09-15T15:48:55.163Z,1.38
2022-09-15T15:51:23.191Z,1.45
2022-09-15T15:53:58.607Z,1.50
2022-09-15T15:56:27.933Z,1.77
2022-09-15T15:58:58.232Z,1.60
2022-09-15T16:04:39.025Z,1.70
2022-09-15T16:07:06.660Z,1.65
2022-09-15T16:09:37.320Z,1.60
2022-09-15T16:12:05.438Z,1.60
2022-09-15T16:14:36.927Z,1.30
2022-09-15T16:17:08.179Z,1.70
2022-09-15T16:19:36.682Z,1.52
2022-09-15T16:22:06.284Z,1.52
2022-09-15T16:24:33.974Z,1.77
2022-09-15T16:27:01.225Z,1.50
2022-09-15T16:29:37.592Z,1.90
2022-09-15T16:32:10.135Z,1.38
2022-09-15T16:34:41.185Z,1.77
2022-09-15T16:37:09.111Z,1.20
2022-09-15T16:39:42.670Z,1.38
2022-09-15T16:42:11.636Z,1.63
2022-09-15T16:44:43.473Z,1.30
2022-09-15T16:47:11.688Z,1.30
2022-09-15T17:03:43.270Z,1.48
2022-09-15T17:06:14.968Z,1.60
2022-09-15T17:08:45.505Z,1.90
2022-09-15T17:11:16.869Z,1.73
2022-09-15T17:13:46.474Z,1.90
2022-09-15T17:16:21.944Z,2.08
2022-09-15T17:18:53.910Z,1.83
2022-09-15T17:21:22.123Z,1.85
2022-09-15T17:23:50.564Z,2.25
2022-09-15T17:26:30.522Z,2.00
2022-09-15T17:29:00.444Z,1.90
2022-09-15T17:31:33.310Z,2.60
2022-09-15T17:34:03.198Z,2.17
2022-09-15T17:36:30.562Z,2.45
2022-09-15T17:38:57.571Z,2.30
2022-09-15T17:45:03.590Z,2.22
2022-09-15T17:47:57.813Z,2.58
2022-09-15T18:23:02.897Z,2.40
2022-09-15T18:26:03.594Z,2.38
2022-09-15T18:51:01.198Z,2.10
2022-09-15T18:57:27.017Z,1.80
2022-09-15T19:11:00.814Z,1.75
2022-09-15T19:13:41.363Z,1.73
2022-09-15T19:18:52.061Z,1.90
2022-09-15T19:21:25.189Z,2.00
2022-09-15T19:24:02.738Z,2.00
2022-09-15T19:29:40.045Z,1.88
2022-09-15T19:32:12.320Z,1.88
2022-09-15T19:35:11.709Z,2.10
2022-09-15T19:38:00.545Z,1.73
2022-09-15T19:41:03.870Z,1.88
2022-09-15T19:57:41.526Z,1.45
2022-09-15T20:04:06.963Z,1.70
2022-09-15T20:06:47.336Z,2.22
2022-09-15T20:09:50.635Z,2.13
2022-09-15T20:13:16.603Z,1.60
2022-09-15T20:16:33.825Z,2.20
2022-09-15T20:19:56.486Z,2.70
2022-09-15T20:23:24.354Z,1.40
2022-09-15T20:26:14.620Z,1.70
2022-09-15T20:28:44.453Z,1.23
2022-09-15T20:31:19.906Z,1.35
2022-09-15T20:33:49.894Z,1.58
2022-09-15T20:36:30.480Z,1.10
2022-09-15T20:39:13.545Z,1.10
2022-09-15T20:41:45.197Z,1.20
2022-09-15T20:44:13.725Z,1.17
2022-09-15T20:46:41.937Z,1.48
2022-09-15T20:53:33.203Z,1.43
2022-09-15T20:57:02.544Z,2.95
2022-09-15T20:59:46.180Z,1.13
2022-09-15T21:02:19.452Z,1.17
2022-09-15T21:04:47.687Z,1.10
2022-09-15T21:08:20.477Z,1.10
2022-09-15T21:16:58.123Z,1.20
2022-09-15T21:20:10.459Z,0.65
2022-09-15T21:22:37.932Z,1.27
2022-09-15T21:25:05.857Z,1.08
2022-09-15T21:27:34.755Z,1.20
2022-09-15T21:30:03.687Z,1.40
2022-09-15T21:32:33.635Z,1.20
2022-09-15T21:35:01.021Z,1.23
2022-09-15T21:37:28.094Z,1.00
2022-09-15T21:39:56.207Z,0.80
2022-09-15T21:42:30.127Z,0.90
2022-09-15T21:44:57.803Z,0.95
2022-09-15T21:47:28.490Z,1.20
2022-09-15T21:49:56.959Z,0.90
2022-09-15T21:52:26.096Z,1.20
2022-09-15T21:54:53.893Z,0.90
2022-09-15T21:57:25.075Z,0.80
2022-09-15T22:00:18.282Z,1.17
2022-09-15T22:02:45.448Z,0.82
2022-09-15T22:05:13.244Z,1.10
2022-09-15T22:07:40.594Z,0.93
2022-09-15T22:10:11.525Z,1.05
2022-09-15T22:12:40.232Z,0.90
2022-09-15T22:15:09.493Z,1.15
2022-09-15T22:17:37.290Z,1.10
2022-09-15T22:20:08.361Z,1.15
2022-09-15T22:22:36.532Z,1.20
2022-09-15T22:25:08.330Z,1.10
2022-09-15T22:30:04.829Z,1.27
2022-09-15T22:32:35.618Z,1.15
2022-09-15T22:35:30.057Z,1.40
2022-09-15T22:37:59.639Z,1.13
2022-09-15T22:40:46.364Z,1.30
2022-09-15T22:43:19.179Z,1.00
2022-09-15T22:46:06.031Z,0.90
2022-09-15T22:48:43.701Z,1.08
2022-09-15T22:51:30.116Z,0.90
2022-09-15T22:54:19.871Z,1.33
2022-09-15T22:57:17.956Z,0.93
2022-09-15T23:13:53.956Z,1.05
2022-09-15T23:16:26.053Z,0.90
2022-09-15T23:18:55.592Z,1.17
2022-09-15T23:21:26.945Z,0.80
2022-09-15T23:23:55.813Z,1.02
2022-09-15T23:26:30.672Z,0.82
2022-09-15T23:30:13.164Z,1.00
2022-09-15T23:33:08.319Z,1.20
2022-09-15T23:35:39.158Z,0.88
2022-09-15T23:38:08.628Z,0.77
2022-09-15T23:40:35.895Z,0.90
2022-09-15T23:43:05.528Z,0.90
2022-09-15T23:45:44.445Z,0.93
2022-09-15T23:48:13.029Z,0.73
2022-09-15T23:50:43.353Z,1.02
2022-09-15T23:57:19.689Z,1.05
